createdAt,value
2019-05-12T00:00:23.006Z,4.47
2019-05-12T00:02:52.404Z,4.07
2019-05-12T00:05:21.767Z,3.90
2019-05-12T00:07:51.252Z,3.87
2019-05-12T00:10:20.657Z,3.33
2019-05-12T00:12:50.013Z,3.20
2019-05-12T00:15:19.800Z,3.40
2019-05-12T00:17:49.145Z,3.70
2019-05-12T00:20:18.709Z,3.30
2019-05-12T00:22:49.729Z,3.00
2019-05-12T00:25:19.405Z,3.00
2019-05-12T00:27:49.065Z,3.00
2019-05-12T00:30:32.492Z,2.97
2019-05-12T00:33:03.748Z,3.17
2019-05-12T00:35:33.342Z,2.80
2019-05-12T00:38:02.722Z,2.97
2019-05-12T00:40:32.293Z,2.83
2019-05-12T00:43:01.651Z,2.77
2019-05-12T00:45:31.088Z,2.93
2019-05-12T00:48:00.367Z,3.63
2019-05-12T00:50:29.659Z,3.40
2019-05-12T00:52:59.080Z,3.30
2019-05-12T00:55:29.090Z,2.93
2019-05-12T00:57:58.543Z,3.10
2019-05-12T01:00:29.424Z,3.00
2019-05-12T01:02:59.153Z,3.30
2019-05-12T01:05:29.443Z,3.50
2019-05-12T01:07:58.958Z,3.50
2019-05-12T01:10:28.844Z,3.77
2019-05-12T01:12:58.564Z,3.80
2019-05-12T01:15:28.901Z,3.90
2019-05-12T01:17:58.764Z,4.03
2019-05-12T01:20:28.670Z,3.67
2019-05-12T01:22:58.319Z,4.30
2019-05-12T01:25:28.994Z,4.40
2019-05-12T01:27:59.164Z,4.30
2019-05-12T01:30:28.771Z,4.33
2019-05-12T01:32:58.526Z,4.07
2019-05-12T01:35:28.573Z,4.07
2019-05-12T01:37:58.787Z,4.10
2019-05-12T01:40:29.011Z,4.20
2019-05-12T01:42:58.662Z,3.90
2019-05-12T01:45:28.791Z,4.20
2019-05-12T01:47:59.439Z,3.87
2019-05-12T01:50:29.156Z,3.93
2019-05-12T01:52:59.164Z,3.97
2019-05-12T01:55:28.711Z,3.87
2019-05-12T01:57:58.105Z,3.70
2019-05-12T02:00:28.538Z,3.40
2019-05-12T02:02:58.666Z,2.87
2019-05-12T02:05:28.397Z,2.97
2019-05-12T02:07:58.970Z,2.57
2019-05-12T02:10:28.939Z,2.50
2019-05-12T02:12:59.328Z,2.33
2019-05-12T02:15:29.028Z,2.57
2019-05-12T02:17:59.100Z,2.40
2019-05-12T02:20:29.003Z,2.57
2019-05-12T02:22:58.706Z,2.00
2019-05-12T02:25:28.880Z,2.60
2019-05-12T02:27:58.748Z,2.40
2019-05-12T02:30:30.509Z,2.27
2019-05-12T02:32:59.855Z,2.00
2019-05-12T02:35:29.345Z,1.90
2019-05-12T02:37:58.667Z,2.40
2019-05-12T02:40:28.138Z,2.30
2019-05-12T02:42:57.484Z,2.40
2019-05-12T02:45:26.875Z,2.50
2019-05-12T02:47:56.241Z,2.43
2019-05-12T02:50:34.899Z,2.60
2019-05-12T02:53:05.186Z,2.77
2019-05-12T02:55:35.177Z,2.90
2019-05-12T02:58:06.878Z,3.00
2019-05-12T03:00:37.195Z,3.00
2019-05-12T03:03:09.132Z,3.20
2019-05-12T03:05:40.425Z,2.93
2019-05-12T03:08:09.764Z,3.57
2019-05-12T03:10:39.101Z,3.40
2019-05-12T03:13:08.450Z,3.50
2019-05-12T03:15:38.032Z,3.27
2019-05-12T03:18:07.741Z,3.10
2019-05-12T03:20:37.158Z,3.33
2019-05-12T03:23:07.149Z,3.10
2019-05-12T03:25:37.439Z,3.20
2019-05-12T03:28:09.382Z,3.07
2019-05-12T03:30:40.811Z,3.00
2019-05-12T03:33:11.894Z,2.87
2019-05-12T03:35:43.854Z,3.17
2019-05-12T03:38:14.518Z,2.70
2019-05-12T03:40:45.012Z,2.70
2019-05-12T03:43:14.524Z,2.90
2019-05-12T03:45:45.420Z,2.50
2019-05-12T03:48:15.339Z,2.50
2019-05-12T03:50:46.096Z,2.53
2019-05-12T03:53:16.253Z,2.40
2019-05-12T03:55:46.927Z,2.47
2019-05-12T03:58:16.668Z,2.50
2019-05-12T04:00:46.177Z,2.30
2019-05-12T04:03:15.774Z,2.30
2019-05-12T04:05:45.627Z,2.20
2019-05-12T04:08:15.978Z,2.40
2019-05-12T04:10:45.987Z,2.37
2019-05-12T04:13:15.765Z,2.43
2019-05-12T04:15:45.836Z,2.20
2019-05-12T04:18:16.515Z,2.10
2019-05-12T04:20:46.434Z,2.10
2019-05-12T04:23:16.054Z,2.07
2019-05-12T04:25:52.107Z,2.13
2019-05-12T04:28:16.655Z,2.30
2019-05-12T04:30:46.068Z,2.00
2019-05-12T04:33:16.110Z,2.13
2019-05-12T04:35:45.737Z,2.23
2019-05-12T04:38:15.408Z,2.20
2019-05-12T04:40:45.189Z,2.60
2019-05-12T04:43:14.933Z,2.87
2019-05-12T04:45:45.338Z,2.93
2019-05-12T04:48:18.228Z,3.70
2019-05-12T04:50:46.046Z,3.83
2019-05-12T04:53:15.391Z,3.43
2019-05-12T04:55:44.985Z,2.87
2019-05-12T04:58:15.756Z,2.60
2019-05-12T05:00:45.934Z,2.40
2019-05-12T05:03:15.398Z,2.00
2019-05-12T05:05:44.881Z,2.30
2019-05-12T05:08:19.333Z,2.03
2019-05-12T05:10:48.916Z,2.23
2019-05-12T05:13:18.214Z,2.20
2019-05-12T05:15:47.508Z,2.60
2019-05-12T05:18:16.985Z,2.60
2019-05-12T05:20:46.351Z,2.50
2019-05-12T05:23:15.662Z,2.53
2019-05-12T05:25:45.167Z,2.67
2019-05-12T05:28:14.868Z,2.53
2019-05-12T05:30:44.490Z,2.80
2019-05-12T05:33:14.671Z,2.87
2019-05-12T05:35:44.310Z,2.90
2019-05-12T05:38:18.648Z,3.10
2019-05-12T05:40:45.560Z,3.00
2019-05-12T05:43:18.622Z,3.27
2019-05-12T05:45:45.908Z,3.23
2019-05-12T05:48:15.350Z,3.87
2019-05-12T05:50:44.659Z,3.57
2019-05-12T05:53:19.376Z,3.13
2019-05-12T05:55:45.118Z,3.17
2019-05-12T05:58:15.381Z,2.73
2019-05-12T06:00:44.922Z,2.83
2019-05-12T06:03:22.624Z,2.77
2019-05-12T06:05:45.436Z,3.40
2019-05-12T06:08:19.773Z,2.97
2019-05-12T06:10:46.543Z,3.20
2019-05-12T06:13:21.241Z,3.20
2019-05-12T06:15:47.670Z,2.90
2019-05-12T06:18:17.074Z,2.80
2019-05-12T06:20:46.438Z,3.10
2019-05-12T06:23:15.741Z,2.90
2019-05-12T06:25:50.993Z,2.87
2019-05-12T06:28:16.322Z,3.17
2019-05-12T06:30:49.478Z,2.47
2019-05-12T06:33:16.774Z,2.63
2019-05-12T06:35:46.147Z,2.60
2019-05-12T06:38:15.445Z,2.60
2019-05-12T06:40:45.583Z,2.80
2019-05-12T06:43:15.140Z,2.33
2019-05-12T06:45:45.727Z,2.93
2019-05-12T06:48:19.369Z,2.67
2019-05-12T06:50:46.284Z,2.50
2019-05-12T06:53:20.212Z,2.40
2019-05-12T06:55:48.238Z,2.40
2019-05-12T06:58:26.340Z,2.57
2019-05-12T07:00:48.783Z,2.40
2019-05-12T07:03:19.580Z,2.10
2019-05-12T07:05:49.340Z,2.10
2019-05-12T07:08:26.649Z,2.30
2019-05-12T07:11:00.847Z,2.30
2019-05-12T07:13:24.981Z,2.50
2019-05-12T07:15:54.374Z,2.00
2019-05-12T07:18:32.264Z,1.90
2019-05-12T07:20:57.619Z,2.27
2019-05-12T07:23:30.155Z,1.87
2019-05-12T07:25:57.961Z,1.97
2019-05-12T07:28:30.486Z,1.97
2019-05-12T07:30:58.588Z,1.87
2019-05-12T07:33:32.802Z,2.03
2019-05-12T07:36:01.352Z,1.90
2019-05-12T07:38:34.362Z,2.07
2019-05-12T07:41:06.788Z,1.90
2019-05-12T07:43:35.447Z,1.83
2019-05-12T07:46:07.026Z,1.70
2019-05-12T07:48:40.190Z,2.00
2019-05-12T07:51:06.796Z,2.00
2019-05-12T07:53:36.162Z,2.27
2019-05-12T07:56:05.542Z,2.00
2019-05-12T07:58:34.873Z,2.10
2019-05-12T08:01:07.749Z,2.00
2019-05-12T08:03:35.302Z,2.13
2019-05-12T08:06:04.867Z,1.90
2019-05-12T08:08:34.297Z,1.70
2019-05-12T08:11:04.459Z,1.90
2019-05-12T08:13:37.620Z,1.50
2019-05-12T08:16:05.368Z,1.77
2019-05-12T08:18:37.053Z,1.90
2019-05-12T08:21:05.907Z,1.80
2019-05-12T08:23:37.894Z,1.90
2019-05-12T08:26:12.161Z,2.00
2019-05-12T08:28:40.482Z,2.33
2019-05-12T08:31:08.612Z,1.93
2019-05-12T08:33:38.002Z,2.10
2019-05-12T08:36:11.394Z,2.40
2019-05-12T08:38:38.435Z,2.10
2019-05-12T08:41:07.797Z,2.10
2019-05-12T08:43:40.442Z,2.20
2019-05-12T08:46:12.102Z,2.10
2019-05-12T08:48:39.172Z,1.90
2019-05-12T08:51:13.994Z,2.20
2019-05-12T08:53:39.672Z,2.40
2019-05-12T08:56:13.032Z,2.33
2019-05-12T08:58:48.190Z,2.20
2019-05-12T09:01:13.660Z,2.00
2019-05-12T09:03:44.249Z,1.80
2019-05-12T09:06:16.941Z,1.80
2019-05-12T09:08:49.277Z,1.80
2019-05-12T09:11:16.833Z,2.20
2019-05-12T09:13:46.229Z,4.73
2019-05-12T09:16:17.887Z,3.90
2019-05-12T09:18:47.256Z,4.50
2019-05-12T09:21:16.689Z,2.60
2019-05-12T09:23:46.079Z,1.70
2019-05-12T09:26:18.568Z,1.80
2019-05-12T09:28:50.213Z,2.30
2019-05-12T09:31:19.440Z,1.73
2019-05-12T09:33:48.936Z,1.80
2019-05-12T09:36:21.418Z,1.70
2019-05-12T09:38:53.619Z,1.60
2019-05-12T09:41:20.572Z,1.60
2019-05-12T09:43:50.552Z,1.63
2019-05-12T09:46:20.148Z,1.60
2019-05-12T09:48:52.198Z,2.97
2019-05-12T09:51:20.584Z,4.00
2019-05-12T09:53:51.190Z,2.10
2019-05-12T09:56:20.990Z,1.40
2019-05-12T09:58:59.082Z,1.43
2019-05-12T10:01:21.586Z,1.80
2019-05-12T10:03:50.894Z,1.70
2019-05-12T10:06:21.438Z,1.53
2019-05-12T10:08:51.179Z,1.77
2019-05-12T10:11:20.949Z,1.80
2019-05-12T10:13:50.430Z,1.47
2019-05-12T10:16:19.731Z,1.80
2019-05-12T10:18:52.774Z,1.60
2019-05-12T10:21:23.609Z,1.60
2019-05-12T10:24:00.286Z,1.40
2019-05-12T10:26:26.195Z,1.67
2019-05-12T10:28:58.178Z,1.63
2019-05-12T10:31:29.641Z,1.50
2019-05-12T10:34:15.635Z,1.33
2019-05-12T10:36:49.010Z,1.63
2019-05-12T10:39:17.922Z,1.50
2019-05-12T10:41:47.988Z,1.70
2019-05-12T10:44:17.459Z,1.60
2019-05-12T10:46:48.471Z,1.70
2019-05-12T10:49:17.881Z,1.53
2019-05-12T10:51:47.737Z,1.80
2019-05-12T10:54:17.235Z,1.70
2019-05-12T10:56:46.552Z,1.60
2019-05-12T10:59:29.071Z,1.77
2019-05-12T11:01:49.081Z,1.73
2019-05-12T11:04:25.113Z,2.10
2019-05-12T11:06:49.177Z,2.03
2019-05-12T11:09:21.208Z,1.77
2019-05-12T11:11:49.571Z,2.00
2019-05-12T11:14:20.316Z,1.97
2019-05-12T11:16:49.848Z,2.20
2019-05-12T11:19:19.443Z,2.07
2019-05-12T11:21:48.819Z,1.90
2019-05-12T11:24:18.255Z,1.80
2019-05-12T11:26:47.663Z,2.27
2019-05-12T11:29:17.059Z,2.07
2019-05-12T11:31:46.567Z,2.07
2019-05-12T11:34:15.963Z,1.80
2019-05-12T11:36:45.577Z,2.43
2019-05-12T11:39:14.934Z,2.07
2019-05-12T11:41:44.491Z,2.00
2019-05-12T11:44:13.889Z,2.03
2019-05-12T11:46:44.107Z,2.30
2019-05-12T11:49:13.965Z,2.20
2019-05-12T11:51:43.347Z,2.93
2019-05-12T11:54:13.660Z,2.70
2019-05-12T11:56:46.600Z,3.77
2019-05-12T11:59:14.346Z,3.23
2019-05-12T12:01:49.782Z,4.43
2019-05-12T12:04:15.511Z,4.10
2019-05-12T12:06:44.980Z,2.27
2019-05-12T12:09:18.469Z,2.43
2019-05-12T12:11:45.420Z,4.80
2019-05-12T12:14:14.919Z,5.90
2019-05-12T12:16:49.964Z,6.50
2019-05-12T12:19:15.320Z,7.03
2019-05-12T12:21:46.116Z,3.63
2019-05-12T12:24:15.658Z,2.43
2019-05-12T12:26:46.270Z,2.40
2019-05-12T12:29:15.502Z,2.20
2019-05-12T12:31:49.603Z,3.57
2019-05-12T12:34:23.991Z,3.93
2019-05-12T12:36:50.170Z,3.73
2019-05-12T12:39:19.533Z,2.87
2019-05-12T12:41:58.406Z,2.70
2019-05-12T12:44:20.102Z,2.20
2019-05-12T12:46:51.164Z,2.20
2019-05-12T12:49:20.470Z,2.50
2019-05-12T12:51:49.763Z,2.47
2019-05-12T12:54:19.136Z,2.83
2019-05-12T12:56:48.742Z,2.30
2019-05-12T12:59:18.264Z,2.30
2019-05-12T13:01:47.559Z,2.20
2019-05-12T13:04:16.996Z,2.23
2019-05-12T13:06:46.500Z,2.30
2019-05-12T13:09:24.138Z,2.20
2019-05-12T13:11:49.383Z,2.23
2019-05-12T13:14:18.744Z,2.30
2019-05-12T13:16:49.450Z,2.30
2019-05-12T13:19:20.078Z,2.10
2019-05-12T13:21:49.455Z,1.97
2019-05-12T13:24:18.742Z,2.10
2019-05-12T13:26:48.127Z,2.07
2019-05-12T13:29:17.598Z,2.20
2019-05-12T13:31:48.496Z,1.97
2019-05-12T13:34:17.994Z,2.10
2019-05-12T13:36:47.382Z,1.97
2019-05-12T13:39:16.708Z,2.10
2019-05-12T13:41:50.392Z,2.00
2019-05-12T13:44:17.168Z,1.73
2019-05-12T13:46:48.849Z,2.00
2019-05-12T13:49:17.842Z,2.27
2019-05-12T13:51:48.330Z,2.30
2019-05-12T13:54:20.247Z,2.23
2019-05-12T13:56:49.411Z,2.20
2019-05-12T13:59:21.198Z,2.00
2019-05-12T14:01:49.887Z,2.10
2019-05-12T14:04:22.289Z,1.97
2019-05-12T14:06:50.420Z,1.90
2019-05-12T14:09:21.198Z,2.00
2019-05-12T14:11:50.593Z,1.90
2019-05-12T14:14:19.902Z,1.70
2019-05-12T14:16:56.961Z,1.83
2019-05-12T14:19:20.354Z,2.00
2019-05-12T14:21:50.793Z,2.17
2019-05-12T14:24:20.231Z,2.20
2019-05-12T14:26:49.671Z,2.00
2019-05-12T14:29:20.607Z,1.97
2019-05-12T14:31:56.025Z,1.70
2019-05-12T14:34:21.635Z,2.20
2019-05-12T14:37:05.118Z,2.27
2019-05-12T14:39:23.979Z,2.00
2019-05-12T14:41:54.674Z,2.00
2019-05-12T14:44:24.197Z,1.97
2019-05-12T14:46:56.659Z,2.17
2019-05-12T14:49:28.424Z,2.40
2019-05-12T14:51:55.811Z,2.00
2019-05-12T14:54:25.285Z,2.20
2019-05-12T14:56:57.675Z,2.13
2019-05-12T14:59:30.155Z,2.13
2019-05-12T15:01:59.257Z,2.50
2019-05-12T15:04:29.938Z,2.43
2019-05-12T15:06:59.658Z,2.60
2019-05-12T15:09:30.189Z,2.23
2019-05-12T15:11:59.578Z,2.50
2019-05-12T15:14:32.537Z,2.30
2019-05-12T15:17:00.030Z,2.53
2019-05-12T15:19:29.926Z,2.40
2019-05-12T15:22:04.897Z,2.50
2019-05-12T15:24:33.551Z,2.47
2019-05-12T15:27:04.932Z,2.40
2019-05-12T15:29:34.402Z,2.40
2019-05-12T15:32:04.085Z,2.33
2019-05-12T15:34:33.850Z,2.50
2019-05-12T15:37:04.209Z,2.20
2019-05-12T15:39:33.716Z,2.80
2019-05-12T15:42:03.644Z,2.60
2019-05-12T15:44:36.299Z,2.43
2019-05-12T15:47:04.310Z,2.20
2019-05-12T15:49:33.842Z,2.27
2019-05-12T15:52:03.692Z,2.40
2019-05-12T15:54:35.784Z,2.10
2019-05-12T15:57:04.444Z,2.30
2019-05-12T15:59:34.543Z,2.27
2019-05-12T16:02:14.639Z,2.23
2019-05-12T16:04:42.638Z,2.40
2019-05-12T16:07:08.607Z,2.17
2019-05-12T16:09:38.599Z,1.90
2019-05-12T16:12:18.852Z,2.27
2019-05-12T16:14:41.055Z,1.90
2019-05-12T16:17:10.417Z,1.90
2019-05-12T16:19:39.815Z,2.00
2019-05-12T16:22:09.252Z,2.10
2019-05-12T16:24:43.398Z,2.10
2019-05-12T16:27:09.627Z,2.20
2019-05-12T16:29:45.426Z,2.20
2019-05-12T16:32:23.856Z,2.17
2019-05-12T16:34:44.924Z,2.50
2019-05-12T16:37:14.172Z,2.40
2019-05-12T16:39:47.103Z,2.43
2019-05-12T16:42:15.230Z,2.67
2019-05-12T16:44:44.806Z,2.63
2019-05-12T16:47:18.748Z,2.70
2019-05-12T16:49:45.840Z,2.50
2019-05-12T16:52:15.782Z,2.80
2019-05-12T16:54:45.118Z,2.70
2019-05-12T16:57:17.798Z,2.27
2019-05-12T16:59:45.460Z,2.70
2019-05-12T17:02:14.874Z,2.57
2019-05-12T17:04:44.398Z,2.80
2019-05-12T17:07:17.053Z,1.97
2019-05-12T17:09:44.984Z,1.67
2019-05-12T17:12:14.792Z,1.80
2019-05-12T17:14:48.830Z,1.90
2019-05-12T17:17:15.605Z,1.53
2019-05-12T17:19:44.925Z,1.70
2019-05-12T17:22:17.349Z,1.80
2019-05-12T17:24:45.515Z,1.30
2019-05-12T17:27:23.606Z,1.97
2019-05-12T17:29:46.206Z,1.70
2019-05-12T17:32:15.716Z,1.50
2019-05-12T17:34:46.092Z,1.60
2019-05-12T17:37:16.182Z,1.53
2019-05-12T17:39:45.418Z,1.70
2019-05-12T17:42:21.737Z,1.20
2019-05-12T17:44:45.981Z,1.23
2019-05-12T17:47:21.181Z,1.30
2019-05-12T17:49:46.558Z,1.50
2019-05-12T17:52:18.622Z,1.50
2019-05-12T17:54:47.444Z,1.17
2019-05-12T17:57:19.907Z,1.90
2019-05-12T17:59:48.006Z,1.90
2019-05-12T18:02:17.475Z,1.40
2019-05-12T18:04:49.917Z,1.10
2019-05-12T18:07:19.422Z,1.30
2019-05-12T18:09:50.631Z,1.30
2019-05-12T18:12:26.723Z,1.40
2019-05-12T18:14:52.507Z,1.70
2019-05-12T18:17:23.647Z,1.47
2019-05-12T18:19:56.497Z,1.87
2019-05-12T18:22:24.562Z,1.60
2019-05-12T18:24:54.345Z,1.80
2019-05-12T18:27:23.952Z,1.70
2019-05-12T18:29:53.827Z,1.90
2019-05-12T18:32:24.425Z,1.80
2019-05-12T18:34:54.083Z,2.20
2019-05-12T18:37:25.045Z,1.97
2019-05-12T18:39:54.538Z,2.00
2019-05-12T18:42:24.628Z,2.03
2019-05-12T18:44:56.144Z,1.87
2019-05-12T18:47:31.716Z,1.97
2019-05-12T18:49:56.691Z,2.03
2019-05-12T18:52:29.366Z,2.17
2019-05-12T18:54:57.544Z,2.30
2019-05-12T18:57:27.158Z,2.77
2019-05-12T19:00:03.443Z,2.77
2019-05-12T19:02:28.666Z,3.07
2019-05-12T19:04:58.344Z,3.23
2019-05-12T19:07:39.393Z,3.30
2019-05-12T19:09:58.985Z,3.73
2019-05-12T19:12:32.575Z,2.80
2019-05-12T19:15:00.170Z,2.90
2019-05-12T19:17:29.775Z,2.87
2019-05-12T19:20:01.280Z,3.13
2019-05-12T19:22:30.723Z,3.20
2019-05-12T19:25:00.261Z,2.93
2019-05-12T19:27:30.043Z,3.20
2019-05-12T19:30:00.115Z,3.40
2019-05-12T19:32:30.048Z,3.37
2019-05-12T19:34:59.772Z,3.83
2019-05-12T19:37:31.025Z,3.60
2019-05-12T19:40:06.022Z,3.77
2019-05-12T19:42:33.295Z,3.80
2019-05-12T19:45:06.785Z,3.93
2019-05-12T19:47:38.374Z,3.60
2019-05-12T19:50:11.936Z,4.00
2019-05-12T19:52:39.679Z,3.50
2019-05-12T19:55:09.490Z,3.50
2019-05-12T19:57:39.152Z,3.30
2019-05-12T20:00:08.842Z,3.23
2019-05-12T20:02:38.932Z,2.80
2019-05-12T20:05:09.582Z,2.80
2019-05-12T20:07:40.787Z,2.87
2019-05-12T20:10:12.881Z,2.93
2019-05-12T20:12:43.585Z,3.53
2019-05-12T20:15:15.057Z,4.00
2019-05-12T20:17:48.680Z,4.80
2019-05-12T20:20:17.956Z,4.40
2019-05-12T20:22:47.488Z,4.77
2019-05-12T20:25:16.870Z,4.90
2019-05-12T20:27:46.176Z,4.70
2019-05-12T20:30:20.788Z,4.50
2019-05-12T20:32:47.690Z,4.37
2019-05-12T20:35:17.310Z,4.50
2019-05-12T20:37:53.015Z,4.27
2019-05-12T20:40:18.240Z,4.37
2019-05-12T20:43:07.545Z,4.70
2019-05-12T20:45:18.811Z,4.40
2019-05-12T20:47:48.327Z,4.00
2019-05-12T20:50:17.920Z,3.50
2019-05-12T20:52:52.266Z,3.70
2019-05-12T20:55:18.515Z,3.30
2019-05-12T20:57:52.458Z,3.07
2019-05-12T21:00:19.490Z,3.00
2019-05-12T21:02:48.962Z,3.20
2019-05-12T21:05:20.106Z,2.97
2019-05-12T21:07:49.331Z,3.03
2019-05-12T21:10:19.848Z,2.70
2019-05-12T21:12:50.186Z,2.93
2019-05-12T21:15:20.852Z,2.90
2019-05-12T21:17:58.529Z,3.00
2019-05-12T21:20:24.104Z,2.93
2019-05-12T21:22:53.864Z,3.13
2019-05-12T21:25:23.461Z,3.20
2019-05-12T21:28:01.683Z,2.97
2019-05-12T21:30:24.696Z,3.00
2019-05-12T21:33:00.703Z,2.80
2019-05-12T21:35:26.113Z,2.67
2019-05-12T21:37:55.683Z,2.70
2019-05-12T21:40:30.637Z,2.97
2019-05-12T21:43:00.203Z,2.80
2019-05-12T21:45:31.084Z,2.87
2019-05-12T21:48:00.748Z,2.60
2019-05-12T21:50:32.881Z,3.10
2019-05-12T21:53:04.153Z,2.63
2019-05-12T21:55:33.996Z,2.90
2019-05-12T21:58:10.708Z,3.00
2019-05-12T22:00:45.051Z,2.97
2019-05-12T22:03:15.560Z,2.80
2019-05-12T22:05:51.628Z,2.60
2019-05-12T22:08:23.099Z,2.57
2019-05-12T22:10:54.090Z,2.77
2019-05-12T22:13:23.111Z,2.63
2019-05-12T22:15:57.410Z,2.70
2019-05-12T22:18:23.954Z,2.80
2019-05-12T22:21:01.166Z,2.77
2019-05-12T22:23:24.907Z,3.07
2019-05-12T22:25:58.449Z,3.10
2019-05-12T22:28:25.303Z,2.83
2019-05-12T22:30:54.727Z,2.87
2019-05-12T22:33:24.362Z,3.03
2019-05-12T22:36:02.921Z,3.20
2019-05-12T22:38:25.025Z,3.30
2019-05-12T22:40:58.028Z,3.00
2019-05-12T22:43:25.405Z,3.03
2019-05-12T22:45:54.966Z,3.50
2019-05-12T22:48:24.294Z,3.40
2019-05-12T22:50:54.978Z,3.20
2019-05-12T22:53:29.766Z,3.10
2019-05-12T22:55:55.557Z,3.23
2019-05-12T22:58:25.592Z,3.00
2019-05-12T23:01:00.844Z,3.03
2019-05-12T23:03:26.197Z,3.07
2019-05-12T23:06:00.122Z,3.47
2019-05-12T23:08:26.532Z,2.93
2019-05-12T23:10:56.237Z,3.17
2019-05-12T23:13:25.722Z,3.10
2019-05-12T23:15:55.236Z,3.17
2019-05-12T23:18:30.583Z,3.07
2019-05-12T23:20:57.196Z,2.97
2019-05-12T23:23:26.553Z,2.90
2019-05-12T23:26:00.317Z,2.93
2019-05-12T23:28:26.926Z,2.93
2019-05-12T23:30:56.219Z,3.00
2019-05-12T23:33:31.784Z,2.80
2019-05-12T23:35:56.679Z,2.90
2019-05-12T23:38:26.032Z,3.07
2019-05-12T23:40:55.417Z,3.17
2019-05-12T23:43:24.806Z,3.03
2019-05-12T23:45:54.096Z,3.10
2019-05-12T23:48:23.450Z,2.97
2019-05-12T23:50:54.251Z,3.20
2019-05-12T23:53:24.311Z,3.73
2019-05-12T23:55:54.181Z,3.10
2019-05-12T23:58:23.739Z,3.10
